sensor_id;sensor_type;location;lat;lon;timestamp;P1;durP1;ratioP1;P2;durP2;ratioP2
4096;SDS011;2062;50.694;7.246;2023-02-01T00:00:56;24.77;;;7.72;;
4096;SDS011;2062;50.694;7.246;2023-02-01T00:03:23;17.57;;;6.53;;
4096;SDS011;2062;50.694;7.246;2023-02-01T00:05:54;17.30;;;6.28;;
4096;SDS011;2062;50.694;7.246;2023-02-01T00:08:22;16.20;;;6.60;;
4096;SDS011;2062;50.694;7.246;2023-02-01T00:10:58;19.60;;;6.75;;
4096;SDS011;2062;50.694;7.246;2023-02-01T00:13:27;19.70;;;6.97;;
4096;SDS011;2062;50.694;7.246;2023-02-01T00:16:01;20.47;;;7.27;;
4096;SDS011;2062;50.694;7.246;2023-02-01T00:18:29;17.90;;;6.40;;
4096;SDS011;2062;50.694;7.246;2023-02-01T00:20:55;19.02;;;6.32;;
4096;SDS011;2062;50.694;7.246;2023-02-01T00:23:22;18.55;;;6.53;;
4096;SDS011;2062;50.694;7.246;2023-02-01T00:25:49;18.88;;;6.55;;
4096;SDS011;2062;50.694;7.246;2023-02-01T00:28:17;19.73;;;6.33;;
4096;SDS011;2062;50.694;7.246;2023-02-01T00:30:44;20.40;;;6.80;;
4096;SDS011;2062;50.694;7.246;2023-02-01T00:33:11;16.85;;;5.57;;
4096;SDS011;2062;50.694;7.246;2023-02-01T00:35:37;17.58;;;6.82;;
4096;SDS011;2062;50.694;7.246;2023-02-01T00:38:04;20.95;;;6.45;;
4096;SDS011;2062;50.694;7.246;2023-02-01T00:40:31;17.20;;;5.67;;
4096;SDS011;2062;50.694;7.246;2023-02-01T00:42:58;19.95;;;5.70;;
4096;SDS011;2062;50.694;7.246;2023-02-01T00:45:26;16.90;;;5.88;;
4096;SDS011;2062;50.694;7.246;2023-02-01T00:47:52;17.30;;;5.50;;
4096;SDS011;2062;50.694;7.246;2023-02-01T00:50:19;15.50;;;5.03;;
4096;SDS011;2062;50.694;7.246;2023-02-01T00:52:46;16.20;;;5.80;;
4096;SDS011;2062;50.694;7.246;2023-02-01T00:55:13;16.13;;;5.38;;
4096;SDS011;2062;50.694;7.246;2023-02-01T00:57:39;12.68;;;4.30;;
4096;SDS011;2062;50.694;7.246;2023-02-01T01:00:07;16.88;;;4.80;;
4096;SDS011;2062;50.694;7.246;2023-02-01T01:02:36;13.13;;;4.72;;
4096;SDS011;2062;50.694;7.246;2023-02-01T01:05:03;14.80;;;4.33;;
4096;SDS011;2062;50.694;7.246;2023-02-01T01:07:30;17.98;;;4.55;;
4096;SDS011;2062;50.694;7.246;2023-02-01T01:09:56;12.32;;;3.90;;
4096;SDS011;2062;50.694;7.246;2023-02-01T01:12:23;13.57;;;3.78;;
4096;SDS011;2062;50.694;7.246;2023-02-01T01:14:50;12.95;;;4.03;;
4096;SDS011;2062;50.694;7.246;2023-02-01T01:17:17;12.87;;;4.07;;
4096;SDS011;2062;50.694;7.246;2023-02-01T01:19:45;13.27;;;3.90;;
4096;SDS011;2062;50.694;7.246;2023-02-01T01:22:11;14.75;;;3.58;;
4096;SDS011;2062;50.694;7.246;2023-02-01T01:24:38;14.45;;;3.55;;
4096;SDS011;2062;50.694;7.246;2023-02-01T01:27:05;13.27;;;3.20;;
4096;SDS011;2062;50.694;7.246;2023-02-01T01:29:32;15.03;;;3.37;;
4096;SDS011;2062;50.694;7.246;2023-02-01T01:31:58;13.18;;;3.55;;
4096;SDS011;2062;50.694;7.246;2023-02-01T01:34:25;14.18;;;3.17;;
4096;SDS011;2062;50.694;7.246;2023-02-01T01:36:53;9.73;;;3.45;;
4096;SDS011;2062;50.694;7.246;2023-02-01T01:39:20;11.23;;;2.80;;
4096;SDS011;2062;50.694;7.246;2023-02-01T01:41:47;16.27;;;3.33;;
4096;SDS011;2062;50.694;7.246;2023-02-01T01:47:17;13.93;;;3.13;;
4096;SDS011;2062;50.694;7.246;2023-02-01T01:49:44;14.07;;;2.92;;
4096;SDS011;2062;50.694;7.246;2023-02-01T01:52:12;8.88;;;2.83;;
4096;SDS011;2062;50.694;7.246;2023-02-01T01:54:41;11.07;;;3.10;;
4096;SDS011;2062;50.694;7.246;2023-02-01T01:57:11;14.57;;;3.17;;
4096;SDS011;2062;50.694;7.246;2023-02-01T01:59:41;14.70;;;2.80;;
4096;SDS011;2062;50.694;7.246;2023-02-01T02:02:13;11.45;;;2.83;;
4096;SDS011;2062;50.694;7.246;2023-02-01T02:04:40;13.68;;;2.60;;
4096;SDS011;2062;50.694;7.246;2023-02-01T02:07:08;13.43;;;2.40;;
4096;SDS011;2062;50.694;7.246;2023-02-01T02:09:39;13.40;;;2.80;;
4096;SDS011;2062;50.694;7.246;2023-02-01T02:12:07;10.65;;;2.75;;
4096;SDS011;2062;50.694;7.246;2023-02-01T02:14:34;16.30;;;3.13;;
4096;SDS011;2062;50.694;7.246;2023-02-01T02:17:05;12.85;;;2.90;;
4096;SDS011;2062;50.694;7.246;2023-02-01T02:22:46;11.75;;;2.90;;
4096;SDS011;2062;50.694;7.246;2023-02-01T02:25:33;9.57;;;2.20;;
4096;SDS011;2062;50.694;7.246;2023-02-01T02:28:21;16.33;;;2.92;;
4096;SDS011;2062;50.694;7.246;2023-02-01T02:31:10;13.13;;;3.33;;
4096;SDS011;2062;50.694;7.246;2023-02-01T02:33:59;15.33;;;3.10;;
4096;SDS011;2062;50.694;7.246;2023-02-01T02:36:35;12.45;;;3.28;;
4096;SDS011;2062;50.694;7.246;2023-02-01T02:39:12;15.73;;;3.53;;
4096;SDS011;2062;50.694;7.246;2023-02-01T02:41:48;13.65;;;3.28;;
4096;SDS011;2062;50.694;7.246;2023-02-01T02:44:44;11.63;;;3.10;;
4096;SDS011;2062;50.694;7.246;2023-02-01T02:47:33;14.07;;;3.50;;
4096;SDS011;2062;50.694;7.246;2023-02-01T02:50:11;9.85;;;2.60;;
4096;SDS011;2062;50.694;7.246;2023-02-01T02:53:02;12.68;;;3.70;;
4096;SDS011;2062;50.694;7.246;2023-02-01T02:55:53;15.50;;;3.70;;
4096;SDS011;2062;50.694;7.246;2023-02-01T02:58:38;13.70;;;3.47;;
4096;SDS011;2062;50.694;7.246;2023-02-01T03:01:24;17.33;;;3.97;;
4096;SDS011;2062;50.694;7.246;2023-02-01T03:04:08;14.18;;;3.40;;
4096;SDS011;2062;50.694;7.246;2023-02-01T03:06:38;12.75;;;3.70;;
4096;SDS011;2062;50.694;7.246;2023-02-01T03:09:07;13.68;;;3.60;;
4096;SDS011;2062;50.694;7.246;2023-02-01T03:11:39;12.57;;;3.30;;
4096;SDS011;2062;50.694;7.246;2023-02-01T03:14:26;15.63;;;3.93;;
4096;SDS011;2062;50.694;7.246;2023-02-01T03:16:57;18.58;;;3.97;;
4096;SDS011;2062;50.694;7.246;2023-02-01T03:19:31;12.00;;;3.05;;
4096;SDS011;2062;50.694;7.246;2023-02-01T03:22:03;11.48;;;3.20;;
4096;SDS011;2062;50.694;7.246;2023-02-01T03:24:34;13.85;;;3.38;;
4096;SDS011;2062;50.694;7.246;2023-02-01T03:27:05;16.77;;;3.63;;
4096;SDS011;2062;50.694;7.246;2023-02-01T03:29:38;14.35;;;3.20;;
4096;SDS011;2062;50.694;7.246;2023-02-01T03:32:08;19.73;;;3.67;;
4096;SDS011;2062;50.694;7.246;2023-02-01T03:34:36;14.77;;;3.40;;
4096;SDS011;2062;50.694;7.246;2023-02-01T03:37:04;16.60;;;3.55;;
4096;SDS011;2062;50.694;7.246;2023-02-01T03:39:34;14.47;;;3.40;;
4096;SDS011;2062;50.694;7.246;2023-02-01T03:42:06;25.38;;;2.78;;
4096;SDS011;2062;50.694;7.246;2023-02-01T03:44:40;12.02;;;3.40;;
4096;SDS011;2062;50.694;7.246;2023-02-01T03:47:13;18.95;;;3.33;;
4096;SDS011;2062;50.694;7.246;2023-02-01T03:49:45;12.10;;;3.10;;
4096;SDS011;2062;50.694;7.246;2023-02-01T03:52:17;11.30;;;2.80;;
4096;SDS011;2062;50.694;7.246;2023-02-01T03:54:47;13.05;;;2.97;;
4096;SDS011;2062;50.694;7.246;2023-02-01T03:57:16;14.82;;;3.10;;
4096;SDS011;2062;50.694;7.246;2023-02-01T03:59:48;12.77;;;2.50;;
4096;SDS011;2062;50.694;7.246;2023-02-01T04:02:15;12.35;;;2.72;;
4096;SDS011;2062;50.694;7.246;2023-02-01T04:04:42;12.43;;;3.03;;
4096;SDS011;2062;50.694;7.246;2023-02-01T04:07:09;12.57;;;2.42;;
4096;SDS011;2062;50.694;7.246;2023-02-01T04:09:37;12.07;;;3.08;;
4096;SDS011;2062;50.694;7.246;2023-02-01T04:12:04;14.27;;;3.42;;
4096;SDS011;2062;50.694;7.246;2023-02-01T04:14:31;11.52;;;2.85;;
4096;SDS011;2062;50.694;7.246;2023-02-01T04:16:57;12.47;;;2.97;;
4096;SDS011;2062;50.694;7.246;2023-02-01T04:19:24;15.10;;;2.83;;
4096;SDS011;2062;50.694;7.246;2023-02-01T04:21:51;15.10;;;3.08;;
4096;SDS011;2062;50.694;7.246;2023-02-01T04:24:18;13.23;;;3.10;;
4096;SDS011;2062;50.694;7.246;2023-02-01T04:26:46;20.83;;;3.65;;
4096;SDS011;2062;50.694;7.246;2023-02-01T04:29:12;21.13;;;3.90;;
4096;SDS011;2062;50.694;7.246;2023-02-01T04:31:39;13.77;;;3.72;;
4096;SDS011;2062;50.694;7.246;2023-02-01T04:34:06;12.43;;;3.40;;
4096;SDS011;2062;50.694;7.246;2023-02-01T04:36:33;12.35;;;3.67;;
4096;SDS011;2062;50.694;7.246;2023-02-01T04:38:59;12.63;;;3.10;;
4096;SDS011;2062;50.694;7.246;2023-02-01T04:41:26;15.73;;;3.40;;
4096;SDS011;2062;50.694;7.246;2023-02-01T04:43:55;16.50;;;3.42;;
4096;SDS011;2062;50.694;7.246;2023-02-01T04:46:22;21.80;;;3.35;;
4096;SDS011;2062;50.694;7.246;2023-02-01T04:48:48;12.93;;;3.08;;
4096;SDS011;2062;50.694;7.246;2023-02-01T04:51:15;12.00;;;3.10;;
4096;SDS011;2062;50.694;7.246;2023-02-01T04:53:44;16.80;;;3.50;;
4096;SDS011;2062;50.694;7.246;2023-02-01T04:56:11;15.60;;;3.15;;
4096;SDS011;2062;50.694;7.246;2023-02-01T04:58:38;14.95;;;3.40;;
4096;SDS011;2062;50.694;7.246;2023-02-01T05:01:06;18.40;;;3.58;;
4096;SDS011;2062;50.694;7.246;2023-02-01T05:03:33;15.27;;;3.00;;
4096;SDS011;2062;50.694;7.246;2023-02-01T05:06:00;13.97;;;3.07;;
4096;SDS011;2062;50.694;7.246;2023-02-01T05:08:29;19.85;;;3.30;;
4096;SDS011;2062;50.694;7.246;2023-02-01T05:10:55;12.43;;;3.00;;
4096;SDS011;2062;50.694;7.246;2023-02-01T05:13:23;16.90;;;3.40;;
4096;SDS011;2062;50.694;7.246;2023-02-01T05:16:09;13.60;;;3.28;;
4096;SDS011;2062;50.694;7.246;2023-02-01T05:18:36;18.90;;;3.13;;
4096;SDS011;2062;50.694;7.246;2023-02-01T05:21:03;13.98;;;3.45;;
4096;SDS011;2062;50.694;7.246;2023-02-01T05:23:30;16.58;;;3.17;;
4096;SDS011;2062;50.694;7.246;2023-02-01T05:26:00;11.68;;;2.63;;
4096;SDS011;2062;50.694;7.246;2023-02-01T05:28:27;10.90;;;2.72;;
4096;SDS011;2062;50.694;7.246;2023-02-01T05:30:54;17.33;;;3.30;;
4096;SDS011;2062;50.694;7.246;2023-02-01T05:33:22;17.65;;;3.65;;
4096;SDS011;2062;50.694;7.246;2023-02-01T05:35:49;12.02;;;3.00;;
4096;SDS011;2062;50.694;7.246;2023-02-01T05:38:16;13.55;;;3.03;;
4096;SDS011;2062;50.694;7.246;2023-02-01T05:40:43;13.77;;;3.17;;
4096;SDS011;2062;50.694;7.246;2023-02-01T05:43:14;11.83;;;2.67;;
4096;SDS011;2062;50.694;7.246;2023-02-01T05:45:41;16.42;;;3.45;;
4096;SDS011;2062;50.694;7.246;2023-02-01T05:48:08;16.88;;;2.83;;
4096;SDS011;2062;50.694;7.246;2023-02-01T05:50:36;12.63;;;2.95;;
4096;SDS011;2062;50.694;7.246;2023-02-01T05:53:03;19.52;;;3.15;;
4096;SDS011;2062;50.694;7.246;2023-02-01T05:55:30;16.10;;;2.97;;
4096;SDS011;2062;50.694;7.246;2023-02-01T05:57:57;17.33;;;2.83;;
4096;SDS011;2062;50.694;7.246;2023-02-01T06:00:24;14.05;;;2.40;;
4096;SDS011;2062;50.694;7.246;2023-02-01T06:02:50;17.13;;;2.75;;
4096;SDS011;2062;50.694;7.246;2023-02-01T06:05:17;13.57;;;2.30;;
4096;SDS011;2062;50.694;7.246;2023-02-01T06:07:45;15.17;;;2.10;;
4096;SDS011;2062;50.694;7.246;2023-02-01T06:10:13;16.27;;;2.13;;
4096;SDS011;2062;50.694;7.246;2023-02-01T06:12:39;12.50;;;2.30;;
4096;SDS011;2062;50.694;7.246;2023-02-01T06:15:07;10.70;;;1.80;;
4096;SDS011;2062;50.694;7.246;2023-02-01T06:17:34;14.90;;;2.30;;
4096;SDS011;2062;50.694;7.246;2023-02-01T06:20:01;17.53;;;2.50;;
4096;SDS011;2062;50.694;7.246;2023-02-01T06:22:28;14.55;;;2.13;;
4096;SDS011;2062;50.694;7.246;2023-02-01T06:24:56;16.15;;;2.45;;
4096;SDS011;2062;50.694;7.246;2023-02-01T06:27:23;13.60;;;2.05;;
4096;SDS011;2062;50.694;7.246;2023-02-01T06:29:51;12.73;;;1.83;;
4096;SDS011;2062;50.694;7.246;2023-02-01T06:32:20;14.73;;;2.33;;
4096;SDS011;2062;50.694;7.246;2023-02-01T06:34:47;17.27;;;2.40;;
4096;SDS011;2062;50.694;7.246;2023-02-01T06:37:14;15.55;;;2.00;;
4096;SDS011;2062;50.694;7.246;2023-02-01T06:39:41;16.50;;;2.17;;
4096;SDS011;2062;50.694;7.246;2023-02-01T06:42:09;11.57;;;2.25;;
4096;SDS011;2062;50.694;7.246;2023-02-01T06:44:36;13.83;;;2.10;;
4096;SDS011;2062;50.694;7.246;2023-02-01T06:47:03;13.05;;;2.92;;
4096;SDS011;2062;50.694;7.246;2023-02-01T06:49:30;12.77;;;2.20;;
4096;SDS011;2062;50.694;7.246;2023-02-01T06:51:57;15.93;;;2.22;;
4096;SDS011;2062;50.694;7.246;2023-02-01T06:54:25;15.85;;;2.15;;
4096;SDS011;2062;50.694;7.246;2023-02-01T06:56:51;13.40;;;2.17;;
4096;SDS011;2062;50.694;7.246;2023-02-01T06:59:20;14.43;;;2.30;;
4096;SDS011;2062;50.694;7.246;2023-02-01T07:01:46;14.48;;;2.42;;
4096;SDS011;2062;50.694;7.246;2023-02-01T07:04:13;18.50;;;2.35;;
4096;SDS011;2062;50.694;7.246;2023-02-01T07:06:40;15.80;;;2.50;;
4096;SDS011;2062;50.694;7.246;2023-02-01T07:09:07;15.00;;;1.97;;
4096;SDS011;2062;50.694;7.246;2023-02-01T07:11:34;12.50;;;2.03;;
4096;SDS011;2062;50.694;7.246;2023-02-01T07:14:02;12.05;;;2.75;;
4096;SDS011;2062;50.694;7.246;2023-02-01T07:16:30;15.50;;;2.78;;
4096;SDS011;2062;50.694;7.246;2023-02-01T07:18:57;11.70;;;2.50;;
4096;SDS011;2062;50.694;7.246;2023-02-01T07:21:24;20.70;;;2.37;;
4096;SDS011;2062;50.694;7.246;2023-02-01T07:23:52;13.23;;;2.10;;
4096;SDS011;2062;50.694;7.246;2023-02-01T07:26:19;16.85;;;2.20;;
4096;SDS011;2062;50.694;7.246;2023-02-01T07:28:46;11.32;;;2.58;;
4096;SDS011;2062;50.694;7.246;2023-02-01T07:31:14;11.60;;;2.67;;
4096;SDS011;2062;50.694;7.246;2023-02-01T07:33:45;11.30;;;2.20;;
4096;SDS011;2062;50.694;7.246;2023-02-01T07:36:13;11.57;;;2.42;;
4096;SDS011;2062;50.694;7.246;2023-02-01T07:38:41;13.70;;;2.60;;
4096;SDS011;2062;50.694;7.246;2023-02-01T07:41:08;12.40;;;2.20;;
4096;SDS011;2062;50.694;7.246;2023-02-01T07:43:35;16.02;;;2.38;;
4096;SDS011;2062;50.694;7.246;2023-02-01T07:46:03;15.67;;;3.13;;
4096;SDS011;2062;50.694;7.246;2023-02-01T07:48:30;17.08;;;2.88;;
4096;SDS011;2062;50.694;7.246;2023-02-01T07:51:00;11.85;;;2.65;;
4096;SDS011;2062;50.694;7.246;2023-02-01T07:53:29;13.00;;;2.50;;
4096;SDS011;2062;50.694;7.246;2023-02-01T07:55:57;15.98;;;2.70;;
4096;SDS011;2062;50.694;7.246;2023-02-01T07:58:24;15.80;;;2.53;;
4096;SDS011;2062;50.694;7.246;2023-02-01T08:00:51;14.95;;;2.58;;
4096;SDS011;2062;50.694;7.246;2023-02-01T08:03:44;15.10;;;3.17;;
4096;SDS011;2062;50.694;7.246;2023-02-01T08:06:12;10.80;;;2.40;;
4096;SDS011;2062;50.694;7.246;2023-02-01T08:08:39;15.18;;;2.42;;
4096;SDS011;2062;50.694;7.246;2023-02-01T08:11:07;16.73;;;3.00;;
4096;SDS011;2062;50.694;7.246;2023-02-01T08:13:34;16.52;;;2.88;;
4096;SDS011;2062;50.694;7.246;2023-02-01T08:16:01;23.08;;;3.58;;
4096;SDS011;2062;50.694;7.246;2023-02-01T08:18:30;18.27;;;2.78;;
4096;SDS011;2062;50.694;7.246;2023-02-01T08:21:01;15.15;;;2.90;;
4096;SDS011;2062;50.694;7.246;2023-02-01T08:23:31;18.73;;;3.07;;
4096;SDS011;2062;50.694;7.246;2023-02-01T08:26:03;11.98;;;2.50;;
4096;SDS011;2062;50.694;7.246;2023-02-01T08:28:32;10.30;;;3.17;;
4096;SDS011;2062;50.694;7.246;2023-02-01T08:30:58;15.98;;;3.28;;
4096;SDS011;2062;50.694;7.246;2023-02-01T08:33:29;12.88;;;3.30;;
4096;SDS011;2062;50.694;7.246;2023-02-01T08:35:56;16.57;;;3.50;;
4096;SDS011;2062;50.694;7.246;2023-02-01T08:38:23;15.73;;;3.03;;
4096;SDS011;2062;50.694;7.246;2023-02-01T08:40:51;11.50;;;2.80;;
4096;SDS011;2062;50.694;7.246;2023-02-01T08:43:18;15.52;;;2.92;;
4096;SDS011;2062;50.694;7.246;2023-02-01T08:45:45;18.70;;;3.30;;
4096;SDS011;2062;50.694;7.246;2023-02-01T08:48:11;12.10;;;3.23;;
4096;SDS011;2062;50.694;7.246;2023-02-01T08:50:38;16.60;;;2.80;;
4096;SDS011;2062;50.694;7.246;2023-02-01T08:53:05;20.00;;;3.92;;
4096;SDS011;2062;50.694;7.246;2023-02-01T08:55:32;14.75;;;2.90;;
4096;SDS011;2062;50.694;7.246;2023-02-01T08:58:00;17.17;;;3.15;;
4096;SDS011;2062;50.694;7.246;2023-02-01T09:00:26;13.43;;;2.53;;
4096;SDS011;2062;50.694;7.246;2023-02-01T09:02:53;14.35;;;3.40;;
4096;SDS011;2062;50.694;7.246;2023-02-01T09:05:21;20.33;;;3.55;;
4096;SDS011;2062;50.694;7.246;2023-02-01T09:07:51;13.82;;;3.05;;
4096;SDS011;2062;50.694;7.246;2023-02-01T09:10:18;11.77;;;2.63;;
4096;SDS011;2062;50.694;7.246;2023-02-01T09:12:45;21.07;;;2.97;;
4096;SDS011;2062;50.694;7.246;2023-02-01T09:15:13;13.40;;;3.03;;
4096;SDS011;2062;50.694;7.246;2023-02-01T09:17:40;15.05;;;3.47;;
4096;SDS011;2062;50.694;7.246;2023-02-01T09:20:09;14.45;;;3.22;;
4096;SDS011;2062;50.694;7.246;2023-02-01T09:22:36;11.95;;;2.97;;
4096;SDS011;2062;50.694;7.246;2023-02-01T09:25:03;18.63;;;2.90;;
4096;SDS011;2062;50.694;7.246;2023-02-01T09:27:31;16.75;;;2.80;;
4096;SDS011;2062;50.694;7.246;2023-02-01T09:29:57;17.02;;;2.30;;
4096;SDS011;2062;50.694;7.246;2023-02-01T09:32:25;20.48;;;3.35;;
4096;SDS011;2062;50.694;7.246;2023-02-01T09:34:52;18.02;;;2.72;;
4096;SDS011;2062;50.694;7.246;2023-02-01T09:37:19;9.97;;;2.40;;
4096;SDS011;2062;50.694;7.246;2023-02-01T09:39:46;15.05;;;2.50;;
4096;SDS011;2062;50.694;7.246;2023-02-01T09:42:19;19.77;;;2.70;;
4096;SDS011;2062;50.694;7.246;2023-02-01T09:45:17;15.82;;;2.70;;
4096;SDS011;2062;50.694;7.246;2023-02-01T09:47:55;14.70;;;2.40;;
4096;SDS011;2062;50.694;7.246;2023-02-01T09:50:28;14.73;;;2.50;;
4096;SDS011;2062;50.694;7.246;2023-02-01T09:53:00;11.82;;;2.40;;
4096;SDS011;2062;50.694;7.246;2023-02-01T09:55:36;13.68;;;2.67;;
4096;SDS011;2062;50.694;7.246;2023-02-01T09:58:16;12.45;;;2.83;;
4096;SDS011;2062;50.694;7.246;2023-02-01T10:00:51;8.90;;;2.25;;
4096;SDS011;2062;50.694;7.246;2023-02-01T10:03:20;14.17;;;2.20;;
4096;SDS011;2062;50.694;7.246;2023-02-01T10:05:57;9.10;;;2.30;;
4096;SDS011;2062;50.694;7.246;2023-02-01T10:08:55;13.60;;;2.28;;
4096;SDS011;2062;50.694;7.246;2023-02-01T10:11:36;8.82;;;2.03;;
4096;SDS011;2062;50.694;7.246;2023-02-01T10:14:29;12.57;;;2.80;;
4096;SDS011;2062;50.694;7.246;2023-02-01T10:17:14;12.63;;;2.40;;
4096;SDS011;2062;50.694;7.246;2023-02-01T10:19:52;15.55;;;2.38;;
4096;SDS011;2062;50.694;7.246;2023-02-01T10:22:28;13.95;;;2.70;;
4096;SDS011;2062;50.694;7.246;2023-02-01T10:25:04;15.75;;;2.50;;
4096;SDS011;2062;50.694;7.246;2023-02-01T10:27:39;12.90;;;2.50;;
4096;SDS011;2062;50.694;7.246;2023-02-01T10:30:14;12.37;;;2.53;;
4096;SDS011;2062;50.694;7.246;2023-02-01T10:32:45;13.25;;;2.75;;
4096;SDS011;2062;50.694;7.246;2023-02-01T10:35:18;15.30;;;3.10;;
4096;SDS011;2062;50.694;7.246;2023-02-01T10:37:48;14.13;;;2.50;;
4096;SDS011;2062;50.694;7.246;2023-02-01T10:40:16;12.55;;;2.47;;
4096;SDS011;2062;50.694;7.246;2023-02-01T10:42:46;12.97;;;2.90;;
4096;SDS011;2062;50.694;7.246;2023-02-01T10:45:15;17.05;;;2.67;;
4096;SDS011;2062;50.694;7.246;2023-02-01T10:47:44;13.27;;;2.63;;
4096;SDS011;2062;50.694;7.246;2023-02-01T10:50:19;14.18;;;2.60;;
4096;SDS011;2062;50.694;7.246;2023-02-01T10:52:57;14.00;;;2.97;;
4096;SDS011;2062;50.694;7.246;2023-02-01T10:55:32;11.87;;;2.70;;
4096;SDS011;2062;50.694;7.246;2023-02-01T10:58:02;9.48;;;2.30;;
4096;SDS011;2062;50.694;7.246;2023-02-01T11:00:34;10.85;;;2.45;;
4096;SDS011;2062;50.694;7.246;2023-02-01T11:03:21;7.57;;;1.98;;
4096;SDS011;2062;50.694;7.246;2023-02-01T11:06:11;15.07;;;2.42;;
4096;SDS011;2062;50.694;7.246;2023-02-01T11:08:47;11.60;;;2.20;;
4096;SDS011;2062;50.694;7.246;2023-02-01T11:11:15;12.75;;;2.25;;
4096;SDS011;2062;50.694;7.246;2023-02-01T11:13:42;12.80;;;2.20;;
4096;SDS011;2062;50.694;7.246;2023-02-01T11:16:11;10.10;;;2.08;;
4096;SDS011;2062;50.694;7.246;2023-02-01T11:18:40;12.30;;;2.20;;
4096;SDS011;2062;50.694;7.246;2023-02-01T11:21:08;11.33;;;2.00;;
4096;SDS011;2062;50.694;7.246;2023-02-01T11:23:40;13.65;;;2.40;;
4096;SDS011;2062;50.694;7.246;2023-02-01T11:26:10;15.38;;;2.25;;
4096;SDS011;2062;50.694;7.246;2023-02-01T11:28:40;10.18;;;2.33;;
4096;SDS011;2062;50.694;7.246;2023-02-01T11:31:11;11.65;;;2.25;;
4096;SDS011;2062;50.694;7.246;2023-02-01T11:33:43;14.93;;;2.60;;
4096;SDS011;2062;50.694;7.246;2023-02-01T11:36:14;12.77;;;2.45;;
4096;SDS011;2062;50.694;7.246;2023-02-01T11:38:47;10.70;;;3.10;;
4096;SDS011;2062;50.694;7.246;2023-02-01T11:41:21;12.07;;;3.15;;
4096;SDS011;2062;50.694;7.246;2023-02-01T11:43:53;12.45;;;2.60;;
4096;SDS011;2062;50.694;7.246;2023-02-01T11:46:24;15.10;;;2.77;;
4096;SDS011;2062;50.694;7.246;2023-02-01T11:48:54;10.70;;;2.05;;
4096;SDS011;2062;50.694;7.246;2023-02-01T11:51:29;11.68;;;2.30;;
4096;SDS011;2062;50.694;7.246;2023-02-01T11:54:07;9.40;;;2.38;;
4096;SDS011;2062;50.694;7.246;2023-02-01T11:56:42;11.10;;;2.25;;
4096;SDS011;2062;50.694;7.246;2023-02-01T11:59:19;10.27;;;2.33;;
4096;SDS011;2062;50.694;7.246;2023-02-01T12:02:09;13.60;;;2.92;;
4096;SDS011;2062;50.694;7.246;2023-02-01T12:04:54;12.88;;;1.95;;
4096;SDS011;2062;50.694;7.246;2023-02-01T12:07:39;14.95;;;2.55;;
4096;SDS011;2062;50.694;7.246;2023-02-01T12:10:20;9.68;;;2.40;;
4096;SDS011;2062;50.694;7.246;2023-02-01T12:12:58;13.27;;;2.23;;
4096;SDS011;2062;50.694;7.246;2023-02-01T12:15:40;9.70;;;1.92;;
4096;SDS011;2062;50.694;7.246;2023-02-01T12:18:26;10.25;;;2.00;;
4096;SDS011;2062;50.694;7.246;2023-02-01T12:21:06;12.63;;;2.13;;
4096;SDS011;2062;50.694;7.246;2023-02-01T12:24:03;13.73;;;2.40;;
4096;SDS011;2062;50.694;7.246;2023-02-01T12:26:47;15.40;;;2.13;;
4096;SDS011;2062;50.694;7.246;2023-02-01T12:29:33;10.88;;;2.05;;
4096;SDS011;2062;50.694;7.246;2023-02-01T12:32:11;8.13;;;2.08;;
4096;SDS011;2062;50.694;7.246;2023-02-01T12:34:59;12.32;;;2.45;;
4096;SDS011;2062;50.694;7.246;2023-02-01T12:37:47;15.25;;;2.38;;
4096;SDS011;2062;50.694;7.246;2023-02-01T12:40:29;9.13;;;2.00;;
4096;SDS011;2062;50.694;7.246;2023-02-01T12:43:12;15.48;;;2.95;;
4096;SDS011;2062;50.694;7.246;2023-02-01T12:45:47;7.43;;;1.45;;
4096;SDS011;2062;50.694;7.246;2023-02-01T12:48:22;9.85;;;2.13;;
4096;SDS011;2062;50.694;7.246;2023-02-01T12:50:54;12.13;;;2.05;;
4096;SDS011;2062;50.694;7.246;2023-02-01T12:53:25;17.73;;;2.57;;
4096;SDS011;2062;50.694;7.246;2023-02-01T12:55:56;9.80;;;2.22;;
4096;SDS011;2062;50.694;7.246;2023-02-01T12:58:31;12.52;;;2.10;;
4096;SDS011;2062;50.694;7.246;2023-02-01T13:01:03;10.82;;;1.83;;
4096;SDS011;2062;50.694;7.246;2023-02-01T13:03:34;14.65;;;2.22;;
4096;SDS011;2062;50.694;7.246;2023-02-01T13:06:06;12.53;;;2.07;;
4096;SDS011;2062;50.694;7.246;2023-02-01T13:08:38;11.88;;;2.42;;
4096;SDS011;2062;50.694;7.246;2023-02-01T13:11:11;14.50;;;2.17;;
4096;SDS011;2062;50.694;7.246;2023-02-01T13:13:46;15.27;;;2.22;;
4096;SDS011;2062;50.694;7.246;2023-02-01T13:16:21;10.13;;;1.95;;
4096;SDS011;2062;50.694;7.246;2023-02-01T13:18:54;15.10;;;2.27;;
4096;SDS011;2062;50.694;7.246;2023-02-01T13:21:27;8.88;;;1.77;;
4096;SDS011;2062;50.694;7.246;2023-02-01T13:23:57;11.45;;;2.08;;
4096;SDS011;2062;50.694;7.246;2023-02-01T13:26:24;11.55;;;1.90;;
4096;SDS011;2062;50.694;7.246;2023-02-01T13:28:53;10.82;;;2.10;;
4096;SDS011;2062;50.694;7.246;2023-02-01T13:31:36;11.03;;;1.80;;
4096;SDS011;2062;50.694;7.246;2023-02-01T13:34:28;12.73;;;1.92;;
4096;SDS011;2062;50.694;7.246;2023-02-01T13:37:11;11.90;;;2.17;;
4096;SDS011;2062;50.694;7.246;2023-02-01T13:39:48;13.70;;;2.60;;
4096;SDS011;2062;50.694;7.246;2023-02-01T13:42:25;7.57;;;1.80;;
4096;SDS011;2062;50.694;7.246;2023-02-01T13:44:57;13.97;;;1.90;;
4096;SDS011;2062;50.694;7.246;2023-02-01T13:47:28;9.45;;;1.42;;
4096;SDS011;2062;50.694;7.246;2023-02-01T13:49:58;11.25;;;1.50;;
4096;SDS011;2062;50.694;7.246;2023-02-01T13:52:36;12.65;;;2.20;;
4096;SDS011;2062;50.694;7.246;2023-02-01T13:55:16;12.95;;;1.83;;
4096;SDS011;2062;50.694;7.246;2023-02-01T13:57:51;9.40;;;2.07;;
4096;SDS011;2062;50.694;7.246;2023-02-01T14:00:37;10.05;;;1.75;;
4096;SDS011;2062;50.694;7.246;2023-02-01T14:03:08;12.32;;;2.45;;
4096;SDS011;2062;50.694;7.246;2023-02-01T14:09:05;12.73;;;1.70;;
4096;SDS011;2062;50.694;7.246;2023-02-01T14:11:40;6.77;;;1.63;;
4096;SDS011;2062;50.694;7.246;2023-02-01T14:23:22;8.63;;;2.20;;
4096;SDS011;2062;50.694;7.246;2023-02-01T14:26:02;11.37;;;2.13;;
4096;SDS011;2062;50.694;7.246;2023-02-01T14:28:41;10.82;;;1.92;;
4096;SDS011;2062;50.694;7.246;2023-02-01T14:31:24;12.32;;;2.70;;
4096;SDS011;2062;50.694;7.246;2023-02-01T14:34:20;10.07;;;1.83;;
4096;SDS011;2062;50.694;7.246;2023-02-01T14:36:52;9.07;;;1.85;;
4096;SDS011;2062;50.694;7.246;2023-02-01T14:39:27;9.33;;;1.97;;
4096;SDS011;2062;50.694;7.246;2023-02-01T14:42:02;10.82;;;1.83;;
4096;SDS011;2062;50.694;7.246;2023-02-01T14:44:32;6.80;;;1.75;;
4096;SDS011;2062;50.694;7.246;2023-02-01T14:47:08;8.82;;;2.20;;
4096;SDS011;2062;50.694;7.246;2023-02-01T14:53:14;12.10;;;2.07;;
4096;SDS011;2062;50.694;7.246;2023-02-01T14:55:46;10.15;;;1.55;;
4096;SDS011;2062;50.694;7.246;2023-02-01T14:58:16;13.95;;;1.83;;
4096;SDS011;2062;50.694;7.246;2023-02-01T15:00:52;11.98;;;2.28;;
4096;SDS011;2062;50.694;7.246;2023-02-01T15:03:28;10.98;;;2.30;;
4096;SDS011;2062;50.694;7.246;2023-02-01T15:06:13;16.10;;;2.23;;
4096;SDS011;2062;50.694;7.246;2023-02-01T15:08:49;11.20;;;1.65;;
4096;SDS011;2062;50.694;7.246;2023-02-01T15:11:20;7.55;;;1.70;;
4096;SDS011;2062;50.694;7.246;2023-02-01T15:13:48;12.25;;;1.88;;
4096;SDS011;2062;50.694;7.246;2023-02-01T15:16:16;15.52;;;1.90;;
4096;SDS011;2062;50.694;7.246;2023-02-01T15:18:43;12.73;;;2.03;;
4096;SDS011;2062;50.694;7.246;2023-02-01T15:21:19;9.68;;;1.65;;
4096;SDS011;2062;50.694;7.246;2023-02-01T15:23:47;10.15;;;1.73;;
4096;SDS011;2062;50.694;7.246;2023-02-01T15:26:25;12.18;;;1.80;;
4096;SDS011;2062;50.694;7.246;2023-02-01T15:28:53;8.50;;;1.35;;
4096;SDS011;2062;50.694;7.246;2023-02-01T15:31:31;7.97;;;1.50;;
4096;SDS011;2062;50.694;7.246;2023-02-01T15:33:59;13.63;;;1.83;;
4096;SDS011;2062;50.694;7.246;2023-02-01T15:36:27;10.93;;;2.22;;
4096;SDS011;2062;50.694;7.246;2023-02-01T15:39:16;9.43;;;1.70;;
4096;SDS011;2062;50.694;7.246;2023-02-01T15:41:49;14.80;;;1.80;;
4096;SDS011;2062;50.694;7.246;2023-02-01T15:44:27;10.23;;;1.67;;
4096;SDS011;2062;50.694;7.246;2023-02-01T15:46:56;9.32;;;1.58;;
4096;SDS011;2062;50.694;7.246;2023-02-01T15:49:25;12.75;;;1.90;;
4096;SDS011;2062;50.694;7.246;2023-02-01T15:51:55;9.57;;;1.77;;